Latest Weather Observations for Friendly Beaches

IDT60801

Issued at 1:01 pm EST Saturday 25 June 2016 (issued every 30 minutes, with the page automatically refreshed every 10 minutes)

About weather observations | Map of weather stations | Latest weather observations for TAS | Other Formats
Station Details ID: 092114 Name: FRIENDLY BEACHES Lat: -42.00 Lon: 148.28 Height: 55.0 m
Data from the previous 72 hours. | See also: Recent months at Friendly Beaches
Date/Time
EST
Temp
°C
App
Temp
°C
Dew
Point
Rel
Hum
%
Delta-T
°C
Wind Press
QNH
hPa
Press
MSL
hPa
Rain
since 9 am
mm
Dir
 
Spd
km/h
Gust
km/h
Spd
kts
Gust
kts
25/01:00pm 9.9 5.7 1.8 57 3.4 W 13 24 7 13 1016.2 1016.3 0.0
25/12:30pm 9.4 4.8 1.3 57 3.3 WSW 15 24 8 13 1016.3 1016.4 0.0
25/12:00pm 9.4 4.8 1.6 58 3.2 WSW 15 26 8 14 1016.6 1016.7 0.0
25/11:30am 8.9 4.6 1.3 59 3.1 WSW 13 30 7 16 1016.8 1016.9 0.0
25/11:00am 8.4 4.5 1.3 61 2.9 WSW 11 20 6 11 1016.9 1017.0 0.0
25/10:30am 7.7 3.4 1.1 63 2.7 W 13 24 7 13 1017.0 1017.1 0.0
25/10:00am 6.7 2.0 1.0 67 2.3 WSW 15 24 8 13 1016.8 1016.9 0.0
25/09:30am 5.9 1.2 1.1 71 1.9 WSW 15 22 8 12 1016.5 1016.6 0.0
25/09:00am 4.9 0.1 0.3 72 1.8 WSW 15 22 8 12 1016.2 1016.3 0.0
25/08:30am 4.0 0.0 0.2 76 1.4 W 11 17 6 9 1015.8 1015.9 0.0
25/08:00am 3.9 -1.0 -0.3 74 1.6 W 15 20 8 11 1015.5 1015.6 0.0
25/07:30am 3.8 -1.5 -0.6 73 1.6 W 17 26 9 14 1015.2 1015.3 0.0
25/07:00am 3.4 -1.9 -0.8 74 1.5 W 17 22 9 12 1014.8 1014.9 0.0
25/06:30am 3.3 -1.5 0.0 79 1.2 W 15 22 8 12 1014.4 1014.5 0.0
25/06:00am 3.2 -1.7 -0.6 76 1.4 W 15 22 8 12 1014.1 1014.2 0.0
25/05:30am 3.8 -1.6 -1.0 71 1.8 WSW 17 28 9 15 1013.7 1013.8 0.0
25/05:00am 4.1 -1.6 -0.9 70 1.8 WSW 19 30 10 16 1013.4 1013.5 0.0
25/04:30am 4.0 -1.4 -1.0 70 1.8 WSW 17 26 9 14 1013.0 1013.1 0.0
25/04:00am 4.1 -1.6 -0.9 70 1.8 W 19 26 10 14 1012.8 1012.9 0.0
25/03:30am 4.3 -1.4 -0.5 71 1.8 WSW 19 28 10 15 1012.5 1012.6 0.0
25/03:00am 3.8 -1.0 0.0 76 1.4 WSW 15 22 8 12 1012.1 1012.2 0.0
25/02:30am 4.0 -0.9 -0.2 74 1.6 WSW 15 20 8 11 1012.0 1012.1 0.0
25/02:00am 4.3 -0.9 0.3 75 1.5 WSW 17 28 9 15 1011.6 1011.7 0.0
25/01:30am 4.3 -0.1 0.3 75 1.5 WSW 13 26 7 14 1011.4 1011.5 0.0
25/01:00am 3.7 0.1 0.4 79 1.3 W 9 17 5 9 1011.0 1011.1 0.0
25/12:30am 4.2 -0.2 0.5 77 1.4 W 13 22 7 12 1010.6 1010.7 0.0
25/12:00am 3.9 -0.5 0.4 78 1.3 WNW 13 19 7 10 1009.8 1009.9 0.0
 
Date/Time
EST
Temp
°C
App
Temp
°C
Dew
Point
Rel
Hum
%
Delta-T
°C
Wind Press
QNH
hPa
Press
MSL
hPa
Rain
since 9 am
mm
Dir
 
Spd
km/h
Gust
km/h
Spd
kts
Gust
kts
24/11:30pm 4.4 -0.3 0.6 76 1.5 W 15 24 8 13 1009.9 1010.0 0.0
24/11:00pm 4.6 -0.1 0.9 77 1.4 WSW 15 22 8 12 1009.7 1009.8 0.0
24/10:30pm 4.7 0.8 1.0 77 1.4 WSW 11 20 6 11 1009.2 1009.3 0.0
24/10:00pm 4.7 0.0 1.0 77 1.4 WSW 15 24 8 13 1008.9 1009.0 0.0
24/09:30pm 4.8 0.2 1.5 79 1.3 WSW 15 22 8 12 1008.2 1008.3 0.0
24/09:00pm 4.7 0.9 1.9 82 1.1 WSW 11 19 6 10 1007.7 1007.7 0.0
24/08:30pm 4.9 0.8 2.1 82 1.1 WSW 13 20 7 11 1007.1 1007.1 0.0
24/08:00pm 4.4 0.6 1.8 83 1.0 W 11 17 6 9 1006.3 1006.3 0.0
24/07:30pm 4.5 0.7 1.9 83 1.0 W 11 17 6 9 1005.7 1005.7 0.0
24/07:00pm 4.9 1.1 1.6 79 1.3 WSW 11 17 6 9 1005.0 1005.0 0.0
24/06:30pm 5.1 0.9 1.4 77 1.5 WSW 13 19 7 10 1004.3 1004.3 0.0
24/06:00pm 5.1 1.2 1.4 77 1.5 WSW 11 17 6 9 1003.7 1003.7 0.0
24/05:30pm 5.5 1.8 2.3 80 1.3 WSW 11 15 6 8 1003.1 1003.1 0.0
24/05:00pm 5.8 2.5 2.3 78 1.4 W 9 13 5 7 1002.4 1002.4 0.0
24/04:30pm 6.7 3.3 2.0 72 1.9 WSW 9 11 5 6 1001.9 1001.9 0.0
24/04:00pm 7.6 4.2 2.1 68 2.3 SSW 9 17 5 9 1001.2 1001.3 0.0
24/03:30pm 8.4 5.5 2.4 66 2.5 SW 7 13 4 7 1000.6 1000.7 0.0
24/03:00pm 9.2 6.5 2.8 64 2.8 SW 6 11 3 6 1000.1 1000.2 0.0
24/02:30pm 9.4 6.6 3.2 65 2.7 SW 7 17 4 9 999.4 999.5 0.0
24/02:00pm 9.0 5.8 2.8 65 2.7 SW 9 17 5 9 999.0 999.1 0.0
24/01:30pm 8.6 4.9 2.6 66 2.5 WSW 11 17 6 9 998.7 998.8 0.0
24/01:00pm 9.3 6.0 2.4 62 2.9 WSW 9 19 5 10 998.5 998.6 0.0
24/12:30pm 8.3 6.6 4.1 75 1.8 SW 2 7 1 4 998.3 998.4 0.0
24/12:00pm 7.9 5.1 3.4 73 1.9 SW 7 9 4 5 997.9 998.0 0.0
24/11:30am 8.4 5.5 2.6 67 2.4 W 7 13 4 7 997.9 998.0 0.0
24/11:00am 8.4 5.6 3.3 70 2.2 WSW 7 13 4 7 997.9 998.0 0.0
24/10:30am 7.7 4.8 2.8 71 2.1 WSW 7 15 4 8 997.8 997.9 0.0
24/10:00am 6.6 3.4 3.2 79 1.4 W 9 17 5 9 997.7 997.8 0.0
24/09:30am 5.2 2.0 3.1 86 0.9 W 9 13 5 7 997.4 997.5 0.0
24/09:00am 4.5 1.6 2.7 88 0.7 W 7 13 4 7 997.0 997.1 13.2
24/08:30am 4.1 0.4 2.1 87 0.8 W 11 13 6 7 996.7 996.8 13.2
24/08:00am 3.6 0.1 1.2 84 0.9 W 9 15 5 8 996.5 996.6 13.2
24/07:30am 4.5 0.3 1.5 81 1.2 WNW 13 17 7 9 996.1 996.2 13.2
24/07:00am 2.9 -0.6 1.4 90 0.6 NW 9 11 5 6 995.9 996.0 13.2
24/06:30am 3.3 -0.1 2.0 91 0.5 W 9 13 5 7 995.8 995.9 13.2
24/06:00am 4.1 0.4 2.1 87 0.8 WNW 11 17 6 9 995.3 995.4 13.0
24/05:30am 4.1 0.7 1.8 85 0.9 W 9 13 5 7 994.8 994.9 13.0
24/05:00am 4.8 1.0 1.8 81 1.2 NW 11 17 6 9 994.7 994.8 13.0
24/04:30am 4.5 1.1 2.0 84 1.0 NW 9 13 5 7 994.2 994.3 13.0
24/04:00am 4.3 1.3 2.3 87 0.8 WNW 7 11 4 6 994.4 994.5 13.0
24/03:30am 4.5 3.0 3.0 90 0.6 CALM 0 0 0 0 994.7 994.8 13.0
24/03:00am 4.7 2.5 3.2 90 0.6 W 4 6 2 3 994.3 994.4 13.0
24/02:30am 5.0 2.5 3.7 91 0.5 WNW 6 6 3 3 994.3 994.4 13.0
24/02:00am 5.3 2.6 3.8 90 0.6 WNW 7 11 4 6 993.8 993.9 13.0
24/01:30am 5.2 2.5 3.7 90 0.6 W 7 11 4 6 993.5 993.6 13.0
24/01:00am 5.3 2.2 3.8 90 0.6 WNW 9 15 5 8 993.4 993.5 13.0
24/12:30am 5.4 2.0 4.1 91 0.6 WNW 11 17 6 9 993.4 993.5 13.0
24/12:00am 5.1 1.7 4.2 94 0.4 W 11 15 6 8 993.3 993.4 13.0
 
Date/Time
EST
Temp
°C
App
Temp
°C
Dew
Point
Rel
Hum
%
Delta-T
°C
Wind Press
QNH
hPa
Press
MSL
hPa
Rain
since 9 am
mm
Dir
 
Spd
km/h
Gust
km/h
Spd
kts
Gust
kts
23/11:30pm 4.8 1.8 4.2 96 0.3 W 9 13 5 7 993.3 993.4 13.0
23/11:00pm 4.7 1.3 4.1 96 0.3 W 11 15 6 8 993.2 993.3 13.0
23/10:30pm 4.7 1.7 4.0 95 0.3 W 9 11 5 6 992.7 992.7 13.0
23/10:00pm 4.8 1.8 4.1 95 0.3 W 9 9 5 5 992.8 992.8 13.0
23/09:30pm 5.0 2.1 4.4 96 0.3 W 9 13 5 7 992.3 992.3 13.0
23/09:00pm 5.0 2.1 4.4 96 0.3 W 9 13 5 7 992.4 992.4 13.0
23/08:30pm 4.9 2.5 4.3 96 0.3 WNW 6 7 3 4 991.5 991.5 13.0
23/08:00pm 4.9 2.3 4.3 96 0.3 W 7 9 4 5 991.6 991.6 13.0
23/07:30pm 4.8 1.8 4.1 95 0.3 W 9 15 5 8 991.8 991.8 13.0
23/07:00pm 5.1 1.4 4.4 95 0.3 W 13 22 7 12 991.6 991.6 11.8
23/06:30pm 5.5 1.4 4.6 94 0.4 WSW 15 22 8 12 991.2 991.2 10.0
23/06:00pm 6.2 1.9 5.3 94 0.4 WSW 17 32 9 17 990.5 990.5 7.4
23/05:30pm 7.9 3.5 6.7 92 0.6 W 19 32 10 17 989.7 989.7 4.8
23/05:00pm 9.8 8.2 8.9 94 0.4 NNW 7 9 4 5 988.7 988.7 2.2
23/04:30pm 9.6 7.6 8.8 95 0.4 NNE 9 15 5 8 988.6 988.6 2.0
23/04:00pm 9.4 7.4 8.5 94 0.4 NNE 9 15 5 8 988.9 988.9 2.0
23/03:30pm 9.3 6.7 7.7 90 0.8 N 11 17 6 9 989.5 989.5 2.0
23/03:00pm 10.1 7.5 7.9 86 1.1 N 11 17 6 9 990.0 990.0 1.2
23/02:30pm 12.3 10.3 7.0 70 2.6 NNW 7 13 4 7 990.2 990.2 0.0
23/02:00pm 12.8 8.7 6.2 64 3.2 NNW 17 30 9 16 990.3 990.3 0.0
23/01:30pm 12.9 8.8 6.0 63 3.3 N 17 32 9 17 990.8 990.8 0.0
23/01:00pm 13.0 9.1 5.4 60 3.6 N 15 28 8 15 991.1 991.1 0.0
23/12:30pm 13.5 9.7 5.7 59 3.7 NW 15 26 8 14 991.9 991.9 0.0
23/12:00pm 12.1 7.9 5.5 64 3.1 NNW 17 37 9 20 992.4 992.4 0.0
23/11:30am 12.6 8.7 5.3 61 3.4 NW 15 43 8 23 992.7 992.7 0.0
23/11:00am 13.1 10.4 5.5 60 3.6 NW 9 19 5 10 992.5 992.5 0.0
23/10:30am 13.4 8.8 6.3 62 3.4 NNW 20 44 11 24 993.4 993.5 0.0
23/10:00am 12.7 7.9 5.6 62 3.4 NW 20 39 11 21 994.0 994.1 0.0
23/09:30am 13.5 9.2 5.4 58 3.8 NNW 17 28 9 15 993.3 993.4 0.0
23/09:00am 12.1 8.8 6.2 67 2.8 NNW 13 20 7 11 993.2 993.3 0.2
23/08:30am 10.9 7.8 5.7 70 2.4 N 11 17 6 9 992.9 992.9 0.2
23/08:00am 10.7 7.9 5.3 69 2.5 NNW 9 17 5 9 992.8 992.8 0.2
23/07:30am 11.0 7.8 5.3 68 2.6 NNW 11 22 6 12 993.2 993.3 0.2
23/07:00am 10.7 7.5 5.3 69 2.5 N 11 19 6 10 993.4 993.5 0.2
23/06:30am 9.9 7.6 4.7 70 2.3 N 6 11 3 6 993.7 993.8 0.2
23/06:00am 10.7 7.4 4.8 67 2.7 NW 11 22 6 12 993.8 993.9 0.2
23/05:30am 10.7 7.3 4.2 64 2.9 NW 11 24 6 13 994.0 994.1 0.2
23/05:00am 10.9 7.9 4.1 63 3.1 NNW 9 22 5 12 994.1 994.2 0.2
23/04:30am 10.1 7.1 4.0 66 2.7 N 9 15 5 8 994.5 994.6 0.2
23/04:00am 10.6 6.9 4.3 65 2.8 NNW 13 22 7 12 994.4 994.5 0.2
23/03:30am 10.9 5.9 3.7 61 3.2 NW 19 37 10 20 994.7 994.8 0.2
23/03:00am 10.6 6.2 2.9 59 3.4 NW 15 35 8 19 995.4 995.5 0.2
23/02:30am 10.1 6.5 3.2 62 3.0 NW 11 28 6 15 995.9 996.0 0.2
23/02:00am 8.8 6.0 2.2 63 2.8 NNE 6 11 3 6 996.1 996.2 0.2
23/01:30am 8.5 5.2 2.5 66 2.5 NNW 9 17 5 9 996.6 996.7 0.2
23/01:00am 7.4 4.5 1.3 65 2.5 NE 6 11 3 6 997.2 997.3 0.2
23/12:30am 7.1 4.2 1.2 66 2.4 N 6 9 3 5 997.5 997.6 0.2
23/12:00am 7.1 4.2 1.6 68 2.3 NW 6 11 3 6 997.2 997.3 0.2
 
Date/Time
EST
Temp
°C
App
Temp
°C
Dew
Point
Rel
Hum
%
Delta-T
°C
Wind Press
QNH
hPa
Press
MSL
hPa
Rain
since 9 am
mm
Dir
 
Spd
km/h
Gust
km/h
Spd
kts
Gust
kts
22/11:30pm 7.3 3.9 1.8 68 2.2 NNW 9 13 5 7 997.4 997.5 0.2
22/11:00pm 8.2 4.0 1.8 64 2.7 W 13 22 7 12 997.5 997.6 0.2
22/10:30pm 8.1 3.9 1.5 63 2.7 WNW 13 28 7 15 997.8 997.9 0.2
22/10:00pm 8.1 3.9 1.5 63 2.7 WNW 13 26 7 14 997.5 997.6 0.2
22/09:30pm 8.1 3.5 1.5 63 2.7 WNW 15 32 8 17 997.2 997.3 0.2
22/09:00pm 7.7 4.1 0.9 62 2.8 W 9 19 5 10 996.7 996.8 0.2
22/08:30pm 8.0 3.7 0.7 60 2.9 W 13 24 7 13 996.4 996.5 0.2
22/08:00pm 8.7 2.6 0.2 55 3.4 WSW 22 37 12 20 996.1 996.2 0.2
22/07:30pm 8.8 2.3 0.3 55 3.4 W 24 41 13 22 995.8 995.9 0.2
22/07:00pm 8.9 2.8 0.4 55 3.5 W 22 43 12 23 994.7 994.8 0.2
22/06:41pm 9.5 2.1 -0.4 50 3.9 W 28 50 15 27 994.0 994.1 0.2
22/06:30pm 9.6 2.6 -0.3 50 3.9 W 26 41 14 22 993.7 993.8 0.2
22/06:00pm 9.9 2.6 0.0 50 4.0 W 28 63 15 34 992.9 992.9 0.2
22/05:57pm 9.9 2.6 -0.3 49 4.1 W 28 48 15 26 992.6 992.6 0.2
22/05:30pm 10.3 4.1 -0.2 48 4.2 W 22 44 12 24 992.9 992.9 0.2
22/05:00pm 10.6 5.1 0.6 50 4.2 W 19 39 10 21 991.8 991.8 0.2
22/04:30pm 11.3 5.4 1.8 52 4.0 W 22 37 12 20 991.0 991.0 0.2
22/04:05pm 12.0 5.0 2.2 51 4.2 W 28 54 15 29 990.1 990.1 0.2
22/04:00pm 12.0 6.6 2.7 53 4.1 W 20 54 11 29 990.0 990.0 0.2
22/03:30pm 11.4 7.5 5.3 66 2.8 W 15 32 8 17 989.8 989.8 0.2
22/03:00pm 13.5 8.5 4.4 54 4.2 WNW 20 46 11 25 989.1 989.1 0.0
22/02:30pm 13.7 7.8 4.0 52 4.4 WNW 24 50 13 27 988.3 988.3 0.0
22/02:00pm 14.2 9.3 4.2 51 4.7 WNW 19 41 10 22 988.2 988.2 0.0
22/01:30pm 14.1 9.1 4.4 52 4.5 WNW 20 37 11 20 987.8 987.8 0.0

Other Formats:

Comma delimited format used in spreadsheet applications
http://www.bom.gov.au/fwo/IDT60801/IDT60801.94987.axf

JavaScript Object Notation format (JSON) in row-major order
http://www.bom.gov.au/fwo/IDT60801/IDT60801.94987.json